This is the latest recevied weather packets stored in our database for station/object DG0PX-12. If no packets are shown the sender has not sent any weather packets the latest 10 day(s).
| Time | Temp. | Humidity | Pressure | Rain* | Wind** | Luminosity | Snow |
|---|---|---|---|---|---|---|---|
| 1777932030 | 16.67° C | 56% | 944.2 hPa | - | - | - | - |
| 1777931130 | 15.56° C | 67% | 944.1 hPa | - | - | - | - |
| 1777930230 | 15° C | 69% | 943.8 hPa | - | - | - | - |
| 1777929330 | 16.67° C | 64% | 943.8 hPa | - | - | - | - |
| 1777928430 | 16.67° C | 63% | 943.7 hPa | - | - | - | - |
| 1777927530 | 16.11° C | 67% | 943.7 hPa | - | - | - | - |
| 1777926630 | 16.67° C | 68% | 943.7 hPa | - | - | - | - |
| 1777925730 | 16.67° C | 65% | 943.5 hPa | - | - | - | - |
| 1777924830 | 17.78° C | 62% | 943.6 hPa | - | - | - | - |
| 1777923930 | 17.78° C | 60% | 943.6 hPa | - | - | - | - |
| 1777923030 | 18.33° C | 62% | 943.5 hPa | - | - | - | - |
| 1777922129 | 18.33° C | 59% | 943.5 hPa | - | - | - | - |
| 1777921229 | 19.44° C | 55% | 943.2 hPa | - | - | - | - |
| 1777920329 | 20° C | 51% | 943.2 hPa | - | - | - | - |
| 1777919429 | 21.67° C | 46% | 943.1 hPa | - | - | - | - |
| 1777918529 | 21.11° C | 48% | 943.2 hPa | - | - | - | - |
| 1777917628 | 23.89° C | 41% | 943.3 hPa | - | - | - | - |
| 1777916727 | 24.44° C | 38% | 943.2 hPa | - | - | - | - |
| 1777915827 | 25° C | 35% | 943.2 hPa | - | - | - | - |
| 1777914927 | 25.56° C | 32% | 943.2 hPa | - | - | - | - |
| 1777914027 | 26.11° C | 31% | 943.3 hPa | - | - | - | - |
| 1777913127 | 25° C | 32% | 943.3 hPa | - | - | - | - |
| 1777912227 | 24.44° C | 33% | 943.2 hPa | - | - | - | - |
| 1777911327 | 25.56° C | 31% | 943.2 hPa | - | - | - | - |
| 1777910426 | 28.33° C | 27% | 943.4 hPa | - | - | - | - |
* Rain since midnight (hover to see other rain measurements)
** Current wind speed in m/s (hover to see current wind gust speed)